Main page
METAR-TAF:

METAR-TAF

Airports :

Palmas Airport

Palmas, Tocantins, Brazil

latitude: 10-17-24S, longitude: 048-21-28W, elevation: 236 m

METAR: missing

Time: 03:06 (06:06 UTC)

Forecast

The report was made 8 hours and 6 minutes ago, at 22:00 UTC
Forecast valid from 24 at 00 UTC to 24 at 12 UTC
Wind 5 kt from the North
Visibility 10 km or more
Scattered clouds at a height of 2000 ft
Few clouds at a height of 3500 ft, Towering cumulus.
Probability 30%
from 24 at 06 UTC to 24 at 09 UTC
rain showers

TAF: SBPJ 232200Z 2400/2412 35005KT 9999 SCT020 FEW035TCU TN24/2408Z TX30/2412Z PROB30 2406/2409 SHRA RMK PDS

Weather observations and forecasts of more than 4000 airports (METAR and TAF reports).

The available stations are represented by yellow and red dots on the map.

Hover mouse over dot to see the name of the station.

Then click to see weather observations and forecasts.

To change the map : click on the green buttons with a black cross to zoom in, on the green button with a dash to zoom out, or on the green arrows for adjacent maps.


METAR-TAF: